createdAt,value
2023-05-15T00:01:52.079Z,9.70
2023-05-15T00:11:55.839Z,10.50
2023-05-15T00:22:01.539Z,11.10
2023-05-15T00:32:05.458Z,10.50
2023-05-15T00:42:09.767Z,11.10
2023-05-15T00:52:14.508Z,11.80
2023-05-15T01:02:22.330Z,10.30
2023-05-15T01:12:28.082Z,11.30
2023-05-15T01:23:06.180Z,10.80
2023-05-15T01:33:29.151Z,10.40
2023-05-15T01:43:35.442Z,11.00
2023-05-15T01:53:40.885Z,10.60
2023-05-15T02:03:46.541Z,10.70
2023-05-15T02:13:57.191Z,10.30
2023-05-15T02:24:02.306Z,10.60
2023-05-15T02:34:18.118Z,11.70
2023-05-15T02:44:22.959Z,10.90
2023-05-15T02:54:26.495Z,10.30
2023-05-15T03:04:30.118Z,10.50
2023-05-15T03:14:33.932Z,10.40
2023-05-15T03:24:37.491Z,11.10
2023-05-15T03:34:41.233Z,10.60
2023-05-15T03:44:44.837Z,9.60
2023-05-15T03:54:51.679Z,10.40
2023-05-15T04:04:55.236Z,10.60
2023-05-15T04:15:13.313Z,10.30
2023-05-15T04:25:18.268Z,11.00
2023-05-15T04:35:21.990Z,9.90
2023-05-15T04:45:25.935Z,12.10
2023-05-15T04:55:30.773Z,12.20
2023-05-15T05:05:35.173Z,12.10
2023-05-15T05:15:38.816Z,9.80
2023-05-15T05:25:43.451Z,10.30
2023-05-15T05:35:47.096Z,9.40
2023-05-15T05:45:50.714Z,11.00
2023-05-15T05:55:54.503Z,10.70
2023-05-15T06:05:58.066Z,10.40
2023-05-15T06:16:01.773Z,9.20
2023-05-15T06:26:05.819Z,8.90
2023-05-15T06:36:09.383Z,9.70
2023-05-15T06:46:16.343Z,8.70
2023-05-15T06:56:20.032Z,9.40
2023-05-15T07:06:23.645Z,9.70
2023-05-15T07:16:27.261Z,10.10
2023-05-15T07:26:43.592Z,11.50
2023-05-15T07:36:52.845Z,10.40
2023-05-15T07:46:57.033Z,10.20
2023-05-15T07:57:00.875Z,9.40
2023-05-15T08:07:04.671Z,10.90
2023-05-15T08:17:08.218Z,8.00
2023-05-15T08:27:11.793Z,7.60
2023-05-15T08:37:18.016Z,7.30
2023-05-15T08:47:24.351Z,7.90
2023-05-15T08:57:28.756Z,9.10
2023-05-15T09:07:32.842Z,8.40
2023-05-15T09:17:36.529Z,9.00
2023-05-15T09:27:46.347Z,8.70
2023-05-15T09:37:59.943Z,8.90
2023-05-15T09:48:08.410Z,7.50
2023-05-15T09:58:15.535Z,7.60
2023-05-15T10:08:31.084Z,6.60
2023-05-15T10:18:38.808Z,14.60
2023-05-15T10:28:45.653Z,12.00
2023-05-15T10:38:50.638Z,10.90
2023-05-15T10:48:54.503Z,7.40
2023-05-15T10:58:58.220Z,6.80
2023-05-15T11:09:27.748Z,7.70
2023-05-15T11:19:31.710Z,6.60
2023-05-15T11:29:35.819Z,7.70
2023-05-15T11:39:39.889Z,7.40
2023-05-15T11:49:43.718Z,7.30
2023-05-15T11:59:47.316Z,6.60
2023-05-15T12:09:55.485Z,7.00
2023-05-15T12:20:00.167Z,8.20
2023-05-15T12:30:05.579Z,9.60
2023-05-15T12:40:12.019Z,9.40
2023-05-15T12:50:21.011Z,10.00
2023-05-15T13:00:26.497Z,7.90
2023-05-15T13:10:34.643Z,10.00
2023-05-15T13:20:51.880Z,7.90
2023-05-15T13:30:56.055Z,8.90
2023-05-15T13:40:59.783Z,8.10
2023-05-15T13:51:03.479Z,8.30
2023-05-15T14:01:09.198Z,9.90
2023-05-15T14:11:12.835Z,8.70
2023-05-15T14:21:18.817Z,8.80
2023-05-15T14:31:22.450Z,7.50
2023-05-15T14:41:28.099Z,7.40
2023-05-15T14:51:32.205Z,8.90
2023-05-15T15:01:37.388Z,9.50
2023-05-15T15:11:40.984Z,8.30
2023-05-15T15:21:46.797Z,7.50
2023-05-15T15:31:52.789Z,9.40
2023-05-15T15:41:56.608Z,17.10
2023-05-15T15:52:01.902Z,8.90
2023-05-15T16:02:06.356Z,9.90
2023-05-15T16:12:10.174Z,10.20
2023-05-15T16:22:14.001Z,12.80
2023-05-15T16:32:18.207Z,10.00
2023-05-15T16:42:41.999Z,11.30
2023-05-15T16:52:47.771Z,7.30
2023-05-15T17:02:52.210Z,9.80
2023-05-15T17:12:56.147Z,8.00
2023-05-15T17:22:59.738Z,10.80
2023-05-15T17:33:03.607Z,11.30
2023-05-15T17:43:10.044Z,6.10
2023-05-15T17:53:13.952Z,5.20
2023-05-15T18:03:17.996Z,4.70
2023-05-15T18:13:21.877Z,4.70
2023-05-15T18:23:25.364Z,5.30
2023-05-15T18:33:28.965Z,6.20
2023-05-15T18:43:32.578Z,8.00
2023-05-15T18:53:36.198Z,9.60
2023-05-15T19:03:39.956Z,9.30
2023-05-15T19:13:43.554Z,10.70
2023-05-15T19:23:49.622Z,12.90
2023-05-15T19:33:53.343Z,11.20
2023-05-15T19:43:56.974Z,13.00
2023-05-15T19:54:02.399Z,11.90
2023-05-15T20:05:05.135Z,11.50
2023-05-15T20:15:09.437Z,11.00
2023-05-15T20:25:13.024Z,11.10
2023-05-15T20:35:17.065Z,11.20
2023-05-15T20:45:21.054Z,12.20
2023-05-15T20:55:24.705Z,12.20
2023-05-15T21:05:28.593Z,13.00
2023-05-15T21:15:32.229Z,13.10
2023-05-15T21:25:36.018Z,12.60
2023-05-15T21:35:39.978Z,13.00
2023-05-15T21:45:43.616Z,12.80
2023-05-15T21:55:48.487Z,12.70
2023-05-15T22:05:53.035Z,12.80
2023-05-15T22:15:56.973Z,12.90
2023-05-15T22:26:01.332Z,11.80
2023-05-15T22:36:06.933Z,12.20
2023-05-15T22:46:11.376Z,11.80
2023-05-15T22:56:14.996Z,11.80
2023-05-15T23:06:18.746Z,12.30
2023-05-15T23:16:25.774Z,12.20
2023-05-15T23:26:30.013Z,12.20
2023-05-15T23:36:36.166Z,12.40
2023-05-15T23:46:41.672Z,12.60
2023-05-15T23:56:45.561Z,12.70
